Terminal Aerodrome Forecast
Issued by NWS Sterling, VA

Current Version | Previous Version | Text Only | Print | Product List | Glossary Off
Versions: 1 2 3 4 5 6 7 8 9 10 11 12 13 14 15 16 17 18 19 20 21

917
FTUS41 KLWX 250536
TAFIAD
TAF
KIAD 250536Z 2506/2612 18006KT P6SM FEW150 BKN250
     FM251300 20009KT P6SM BKN060
     FM260200 20004KT P6SM SCT250=

USA.gov is the U.S. government's official web portal to all federal, state and local government web resources and services.